createdAt,value
2022-12-22T00:01:55.914Z,98012.38
2022-12-22T00:04:42.710Z,98017.38
2022-12-22T00:07:28.530Z,98011.81
2022-12-22T00:10:15.441Z,98021.47
2022-12-22T00:13:00.774Z,98010.94
2022-12-22T00:15:50.076Z,98002.66
2022-12-22T00:18:36.133Z,97992.50
2022-12-22T00:21:22.063Z,97988.72
2022-12-22T00:24:07.713Z,97987.34
2022-12-22T00:26:55.337Z,97985.88
2022-12-22T00:29:41.009Z,97991.03
2022-12-22T00:32:32.347Z,97983.16
2022-12-22T00:35:18.965Z,97983.97
2022-12-22T00:38:05.096Z,97981.94
2022-12-22T00:40:50.408Z,97977.13
2022-12-22T00:43:37.367Z,97973.06
2022-12-22T00:46:23.386Z,97984.09
2022-12-22T00:49:09.657Z,97980.28
2022-12-22T00:51:55.654Z,97975.97
2022-12-22T00:54:41.666Z,97966.78
2022-12-22T00:57:34.061Z,97970.13
2022-12-22T01:00:23.098Z,97969.75
2022-12-22T01:03:09.059Z,97962.69
2022-12-22T01:05:54.716Z,97972.94
2022-12-22T01:08:40.263Z,97976.50
2022-12-22T01:11:26.586Z,97981.81
2022-12-22T01:14:11.914Z,97979.97
2022-12-22T01:16:58.822Z,97975.69
2022-12-22T01:19:44.208Z,97968.34
2022-12-22T01:22:30.994Z,97974.28
2022-12-22T01:25:16.869Z,97970.13
2022-12-22T01:28:02.339Z,97973.97
2022-12-22T01:30:47.763Z,97977.25
2022-12-22T01:33:34.815Z,97974.00
2022-12-22T01:36:19.975Z,97966.47
2022-12-22T01:39:05.753Z,97957.94
2022-12-22T01:41:51.855Z,97964.16
2022-12-22T01:44:37.722Z,97959.38
2022-12-22T01:48:00.103Z,97955.03
2022-12-22T01:50:52.302Z,97965.81
2022-12-22T01:53:41.999Z,97956.66
2022-12-22T01:56:28.016Z,97961.69
2022-12-22T01:59:17.383Z,97967.97
2022-12-22T02:02:03.854Z,97977.41
2022-12-22T02:04:53.089Z,97975.06
2022-12-22T02:07:56.443Z,97972.81
2022-12-22T02:10:58.576Z,97984.94
2022-12-22T02:13:53.457Z,97979.34
2022-12-22T02:16:46.322Z,97992.38
2022-12-22T02:19:43.792Z,97987.56
2022-12-22T02:22:40.262Z,97978.69
2022-12-22T02:25:35.006Z,97976.28
2022-12-22T02:28:24.405Z,97976.59
2022-12-22T02:31:11.118Z,97976.56
2022-12-22T02:33:57.184Z,97981.34
2022-12-22T02:36:56.720Z,97980.22
2022-12-22T02:39:54.562Z,97974.06
2022-12-22T02:42:51.272Z,97977.22
2022-12-22T02:45:46.893Z,97985.56
2022-12-22T02:48:39.499Z,97970.41
2022-12-22T02:51:30.165Z,97965.28
2022-12-22T02:54:16.571Z,97956.44
2022-12-22T02:57:02.742Z,97961.03
2022-12-22T02:59:48.147Z,97954.31
2022-12-22T03:02:35.154Z,97961.22
2022-12-22T03:05:21.228Z,97963.91
2022-12-22T03:08:08.734Z,97958.38
2022-12-22T03:10:55.091Z,97966.53
2022-12-22T03:13:40.964Z,97967.94
2022-12-22T03:16:26.410Z,97959.53
2022-12-22T03:19:13.324Z,97953.81
2022-12-22T03:21:59.678Z,97958.22
2022-12-22T03:24:45.033Z,97951.97
2022-12-22T03:27:13.217Z,97958.16
2022-12-22T03:29:41.276Z,97952.44
2022-12-22T03:32:09.327Z,97965.34
2022-12-22T03:34:38.769Z,97967.63
2022-12-22T03:37:06.842Z,97972.94
2022-12-22T03:39:34.895Z,97972.75
2022-12-22T03:42:20.509Z,97962.56
2022-12-22T03:45:06.318Z,97962.88
2022-12-22T03:47:34.501Z,97963.03
2022-12-22T03:50:04.006Z,97956.22
2022-12-22T03:52:32.053Z,97959.47
2022-12-22T03:55:00.173Z,97968.50
2022-12-22T03:57:28.197Z,97962.44
2022-12-22T03:59:56.323Z,97959.16
2022-12-22T04:02:24.529Z,97969.03
2022-12-22T04:04:52.646Z,97966.19
2022-12-22T04:07:22.093Z,97959.44
2022-12-22T04:10:04.053Z,97960.22
2022-12-22T04:12:49.646Z,97953.94
2022-12-22T04:15:18.021Z,97957.19
2022-12-22T04:17:46.071Z,97953.16
2022-12-22T04:20:14.294Z,97951.03
2022-12-22T04:22:43.891Z,97952.41
2022-12-22T04:25:12.478Z,97945.63
2022-12-22T04:27:40.662Z,97952.84
2022-12-22T04:30:10.163Z,97954.78
2022-12-22T04:32:38.298Z,97951.66
2022-12-22T04:35:08.323Z,97950.78
2022-12-22T04:37:36.444Z,97945.16
2022-12-22T04:40:07.109Z,97944.66
2022-12-22T04:42:35.338Z,97938.47
2022-12-22T04:45:03.424Z,97932.91
2022-12-22T04:47:31.532Z,97928.25
2022-12-22T04:50:00.190Z,97935.19
2022-12-22T04:52:28.300Z,97934.81
2022-12-22T04:54:56.413Z,97926.31
2022-12-22T04:57:26.052Z,97921.81
2022-12-22T04:59:55.348Z,97922.72
2022-12-22T05:02:23.697Z,97921.78
2022-12-22T05:04:51.800Z,97916.00
2022-12-22T05:07:20.831Z,97913.59
2022-12-22T05:09:48.959Z,97909.69
2022-12-22T05:12:34.609Z,97908.06
2022-12-22T05:15:04.492Z,97914.81
2022-12-22T05:17:32.685Z,97911.97
2022-12-22T05:20:00.700Z,97909.69
2022-12-22T05:22:28.789Z,97902.81
2022-12-22T05:24:57.318Z,97909.19
2022-12-22T05:27:25.430Z,97909.66
2022-12-22T05:29:53.505Z,97923.19
2022-12-22T05:32:23.045Z,97916.22
2022-12-22T05:34:51.131Z,97921.38
2022-12-22T05:37:19.326Z,97920.53
2022-12-22T05:39:47.363Z,97908.50
2022-12-22T05:42:35.437Z,97903.09
2022-12-22T05:45:05.597Z,97905.75
2022-12-22T05:47:35.168Z,97901.28
2022-12-22T05:50:03.608Z,97891.44
2022-12-22T05:52:31.661Z,97900.84
2022-12-22T05:54:59.753Z,97886.03
2022-12-22T05:57:27.948Z,97886.09
2022-12-22T05:59:56.004Z,97903.56
2022-12-22T06:02:24.466Z,97899.94
2022-12-22T06:04:54.336Z,97898.41
2022-12-22T06:07:30.384Z,97897.94
2022-12-22T06:09:58.520Z,97908.41
2022-12-22T06:12:26.673Z,97896.66
2022-12-22T06:14:54.705Z,97900.97
2022-12-22T06:17:22.810Z,97910.88
2022-12-22T06:19:50.928Z,97912.56
2022-12-22T06:22:20.408Z,97918.25
2022-12-22T06:24:48.450Z,97917.22
2022-12-22T06:27:16.622Z,97917.78
2022-12-22T06:29:44.687Z,97911.09
2022-12-22T06:32:12.767Z,97916.19
2022-12-22T06:34:40.883Z,97916.03
2022-12-22T06:37:08.963Z,97912.94
2022-12-22T06:39:38.483Z,97916.22
2022-12-22T06:42:23.775Z,97914.81
2022-12-22T06:44:54.954Z,97923.31
2022-12-22T06:47:23.444Z,97920.47
2022-12-22T06:49:52.334Z,97907.47
2022-12-22T06:52:20.547Z,97895.66
2022-12-22T06:54:50.158Z,97889.09
2022-12-22T06:57:18.232Z,97895.31
2022-12-22T06:59:46.939Z,97895.38
2022-12-22T07:02:17.087Z,97900.03
2022-12-22T07:04:45.480Z,97899.91
2022-12-22T07:07:13.539Z,97900.59
2022-12-22T07:09:41.691Z,97898.91
2022-12-22T07:12:11.151Z,97891.13
2022-12-22T07:14:39.222Z,97894.06
2022-12-22T07:17:07.307Z,97894.16
2022-12-22T07:19:35.385Z,97909.94
2022-12-22T07:22:03.560Z,97906.09
2022-12-22T07:24:31.622Z,97903.31
2022-12-22T07:27:00.214Z,97900.00
2022-12-22T07:29:29.664Z,97880.38
2022-12-22T07:31:57.856Z,97878.44
2022-12-22T07:34:25.938Z,97880.56
2022-12-22T07:36:54.010Z,97873.25
2022-12-22T07:39:22.085Z,97882.84
2022-12-22T07:42:07.605Z,97879.94
2022-12-22T07:44:37.111Z,97884.34
2022-12-22T07:47:05.398Z,97884.50
2022-12-22T07:49:50.742Z,97877.53
2022-12-22T07:52:18.850Z,97872.19
2022-12-22T07:54:46.902Z,97869.91
2022-12-22T07:57:14.953Z,97867.50
2022-12-22T07:59:44.507Z,97866.91
2022-12-22T08:02:13.123Z,97858.09
2022-12-22T08:04:41.403Z,97859.94
2022-12-22T08:07:09.484Z,97852.94
2022-12-22T08:09:37.540Z,97858.25
2022-12-22T08:12:06.123Z,97855.81
2022-12-22T08:14:34.210Z,97861.75
2022-12-22T08:17:03.792Z,97856.91
2022-12-22T08:19:32.917Z,97856.28
2022-12-22T08:22:01.376Z,97849.91
2022-12-22T08:24:29.993Z,97853.25
2022-12-22T08:27:01.429Z,97844.41
2022-12-22T08:29:34.399Z,97847.00
2022-12-22T08:32:04.180Z,97842.72
2022-12-22T08:34:32.544Z,97842.09
2022-12-22T08:37:04.041Z,97847.53
2022-12-22T08:39:35.423Z,97843.44
2022-12-22T08:42:06.760Z,97851.59
2022-12-22T08:44:34.890Z,97852.81
2022-12-22T08:47:04.454Z,97845.47
2022-12-22T08:49:32.946Z,97838.97
2022-12-22T08:52:01.262Z,97840.66
2022-12-22T08:54:29.720Z,97830.06
2022-12-22T08:56:58.739Z,97837.63
2022-12-22T08:59:26.832Z,97842.41
2022-12-22T09:01:54.965Z,97819.88
2022-12-22T09:04:25.540Z,97819.81
2022-12-22T09:06:54.411Z,97815.84
2022-12-22T09:09:22.584Z,97808.97
2022-12-22T09:11:50.823Z,97811.28
2022-12-22T09:14:19.272Z,97799.00
2022-12-22T09:16:47.337Z,97797.41
2022-12-22T09:19:15.613Z,97798.28
2022-12-22T09:21:45.127Z,97791.34
2022-12-22T09:24:14.656Z,97789.84
2022-12-22T09:26:43.070Z,97787.34
2022-12-22T09:29:11.132Z,97783.47
2022-12-22T09:31:41.705Z,97780.38
2022-12-22T09:34:16.866Z,97770.78
2022-12-22T09:36:48.097Z,97760.88
2022-12-22T09:39:17.240Z,97756.63
2022-12-22T09:41:48.438Z,97743.94
2022-12-22T09:44:26.407Z,97740.22
2022-12-22T09:46:56.968Z,97742.63
2022-12-22T09:49:25.835Z,97750.16
2022-12-22T09:51:58.476Z,97744.69
2022-12-22T09:54:27.433Z,97739.00
2022-12-22T09:56:55.493Z,97738.03
2022-12-22T09:59:27.095Z,97737.19
2022-12-22T10:02:04.178Z,97735.56
2022-12-22T10:04:50.480Z,97740.38
2022-12-22T10:07:27.628Z,97724.56
2022-12-22T10:09:56.196Z,97721.34
2022-12-22T10:12:26.840Z,97714.38
2022-12-22T10:14:55.606Z,97713.25
2022-12-22T10:17:28.194Z,97712.69
2022-12-22T10:20:10.771Z,97709.44
2022-12-22T10:22:49.029Z,97711.22
2022-12-22T10:26:00.051Z,97705.47
2022-12-22T10:28:25.479Z,97705.78
2022-12-22T10:31:12.876Z,97694.69
2022-12-22T10:33:46.840Z,97686.19
2022-12-22T10:36:17.556Z,97682.38
2022-12-22T10:38:58.498Z,97677.56
2022-12-22T10:41:29.198Z,97682.38
2022-12-22T10:44:00.183Z,97676.59
2022-12-22T10:46:36.015Z,97666.94
2022-12-22T10:49:18.188Z,97669.75
2022-12-22T10:51:49.697Z,97671.84
2022-12-22T10:54:31.457Z,97665.16
2022-12-22T10:57:30.416Z,97657.94
2022-12-22T11:00:00.347Z,97658.22
2022-12-22T11:02:34.176Z,97646.38
2022-12-22T11:05:06.136Z,97646.28
2022-12-22T11:07:36.297Z,97653.59
2022-12-22T11:10:17.803Z,97649.88
2022-12-22T11:13:12.111Z,97646.38
2022-12-22T11:15:49.715Z,97637.31
2022-12-22T11:18:37.037Z,97638.78
2022-12-22T11:21:16.180Z,97643.31
2022-12-22T11:23:55.640Z,97634.81
2022-12-22T11:26:36.926Z,97624.09
2022-12-22T11:29:30.937Z,97626.84
2022-12-22T11:32:13.597Z,97626.25
2022-12-22T11:34:56.139Z,97619.63
2022-12-22T11:37:35.430Z,97621.63
2022-12-22T11:40:13.072Z,97616.25
2022-12-22T11:42:56.638Z,97623.81
2022-12-22T11:45:43.307Z,97613.88
2022-12-22T11:48:30.644Z,97613.88
2022-12-22T11:51:10.506Z,97603.19
2022-12-22T11:54:27.777Z,97598.69
2022-12-22T11:57:05.007Z,97600.31
2022-12-22T11:59:47.808Z,97607.53
2022-12-22T12:02:49.753Z,97593.16
2022-12-22T12:05:37.973Z,97602.03
2022-12-22T12:08:16.341Z,97594.56
2022-12-22T12:10:48.922Z,97583.03
2022-12-22T12:13:33.162Z,97581.38
2022-12-22T12:16:18.415Z,97580.16
2022-12-22T12:19:13.147Z,97579.41
2022-12-22T12:21:48.355Z,97584.94
2022-12-22T12:24:40.625Z,97584.19
2022-12-22T12:27:22.297Z,97576.09
2022-12-22T12:30:28.594Z,97580.13
2022-12-22T12:32:54.084Z,97581.88
2022-12-22T12:35:59.649Z,97579.81
2022-12-22T12:39:07.010Z,97570.28
2022-12-22T12:41:32.670Z,97560.25
2022-12-22T12:44:02.372Z,97561.94
2022-12-22T12:47:01.725Z,97558.75
2022-12-22T12:49:59.646Z,97562.25
2022-12-22T12:53:15.770Z,97558.75
2022-12-22T12:56:04.902Z,97551.22
2022-12-22T12:58:53.836Z,97550.72
2022-12-22T13:01:58.616Z,97542.94
2022-12-22T13:05:09.436Z,97545.44
2022-12-22T13:08:19.409Z,97538.66
2022-12-22T13:10:50.447Z,97541.41
2022-12-22T13:13:52.274Z,97541.94
2022-12-22T13:16:39.834Z,97525.19
2022-12-22T13:19:21.292Z,97523.16
2022-12-22T13:21:53.478Z,97520.94
2022-12-22T13:24:29.136Z,97520.41
2022-12-22T13:27:03.318Z,97509.88
2022-12-22T13:29:42.024Z,97517.03
2022-12-22T13:32:23.078Z,97530.34
2022-12-22T13:35:29.572Z,97528.31
2022-12-22T13:37:48.878Z,97522.56
2022-12-22T13:40:22.430Z,97528.06
2022-12-22T13:42:53.199Z,97533.75
2022-12-22T13:45:37.256Z,97528.47
2022-12-22T13:48:10.758Z,97536.50
2022-12-22T13:50:40.695Z,97527.47
2022-12-22T13:53:22.904Z,97523.59
2022-12-22T13:56:01.586Z,97526.81
2022-12-22T13:58:32.265Z,97524.19
2022-12-22T14:01:14.468Z,97515.59
2022-12-22T14:04:04.373Z,97512.16
2022-12-22T14:06:36.090Z,97516.81
2022-12-22T14:09:18.667Z,97521.09
2022-12-22T14:11:53.056Z,97523.81
2022-12-22T14:14:25.983Z,97516.06
2022-12-22T14:16:56.309Z,97521.59
2022-12-22T14:19:26.150Z,97528.03
2022-12-22T14:22:05.826Z,97517.31
2022-12-22T14:24:39.084Z,97515.31
2022-12-22T14:27:19.822Z,97518.28
2022-12-22T14:29:48.092Z,97513.81
2022-12-22T14:32:38.364Z,97514.81
2022-12-22T14:35:17.683Z,97513.97
2022-12-22T14:37:45.794Z,97509.78
2022-12-22T14:40:29.012Z,97513.59
2022-12-22T14:43:00.159Z,97517.50
2022-12-22T14:45:28.561Z,97514.31
2022-12-22T14:47:57.573Z,97504.09
2022-12-22T14:50:28.229Z,97513.75
2022-12-22T14:52:58.523Z,97504.19
2022-12-22T14:55:30.023Z,97505.25
2022-12-22T14:58:03.960Z,97507.75
2022-12-22T15:00:35.687Z,97508.19
2022-12-22T15:03:06.979Z,97505.41
2022-12-22T15:05:37.470Z,97501.41
2022-12-22T15:08:09.327Z,97496.28
2022-12-22T15:10:43.813Z,97498.69
2022-12-22T15:13:25.181Z,97494.06
2022-12-22T15:15:53.775Z,97495.38
2022-12-22T15:18:25.831Z,97501.06
2022-12-22T15:20:54.148Z,97501.31
2022-12-22T15:23:22.249Z,97496.38
2022-12-22T15:25:50.371Z,97485.66
2022-12-22T15:28:19.817Z,97492.53
2022-12-22T15:30:49.281Z,97489.03
2022-12-22T15:33:19.922Z,97488.69
2022-12-22T15:35:48.314Z,97487.22
2022-12-22T15:38:19.076Z,97480.97
2022-12-22T15:40:47.210Z,97487.44
2022-12-22T15:43:56.020Z,97491.44
2022-12-22T15:46:07.652Z,97479.13
2022-12-22T15:48:37.626Z,97481.13
2022-12-22T15:51:07.812Z,97488.13
2022-12-22T15:53:38.039Z,97477.66
2022-12-22T15:56:10.151Z,97471.16
2022-12-22T15:58:40.741Z,97465.88
2022-12-22T16:01:11.872Z,97470.59
2022-12-22T16:03:40.379Z,97469.94
2022-12-22T16:06:14.922Z,97472.41
2022-12-22T16:08:47.200Z,97468.31
2022-12-22T16:11:15.410Z,97463.88
2022-12-22T16:13:43.613Z,97456.56
2022-12-22T16:16:13.498Z,97457.03
2022-12-22T16:18:41.592Z,97449.06
2022-12-22T16:21:15.788Z,97457.81
2022-12-22T16:23:45.977Z,97452.84
2022-12-22T16:26:18.081Z,97458.91
2022-12-22T16:28:46.776Z,97457.91
2022-12-22T16:31:21.281Z,97457.69
2022-12-22T16:33:50.143Z,97454.19
2022-12-22T16:36:18.399Z,97465.47
2022-12-22T16:38:47.678Z,97462.47
2022-12-22T16:41:21.802Z,97455.94
2022-12-22T16:43:51.020Z,97448.94
2022-12-22T16:46:22.968Z,97446.19
2022-12-22T16:48:53.187Z,97446.34
2022-12-22T16:51:25.031Z,97453.53
2022-12-22T16:53:53.792Z,97455.97
2022-12-22T16:56:26.908Z,97457.09
2022-12-22T16:58:55.090Z,97454.34
2022-12-22T17:01:32.999Z,97457.78
2022-12-22T17:04:05.605Z,97466.59
2022-12-22T17:06:34.163Z,97468.44
2022-12-22T17:09:04.180Z,97468.13
2022-12-22T17:11:34.534Z,97466.69
2022-12-22T17:14:07.024Z,97468.69
2022-12-22T17:16:36.676Z,97455.50
2022-12-22T17:19:04.856Z,97459.88
2022-12-22T17:21:33.747Z,97448.88
2022-12-22T17:24:04.918Z,97448.78
2022-12-22T17:26:34.697Z,97457.72
2022-12-22T17:29:03.074Z,97454.91
2022-12-22T17:31:31.365Z,97455.94
2022-12-22T17:34:00.880Z,97450.94
2022-12-22T17:36:33.988Z,97451.78
2022-12-22T17:39:03.235Z,97445.38
2022-12-22T17:41:31.554Z,97453.63
2022-12-22T17:43:59.744Z,97448.28
2022-12-22T17:46:28.637Z,97445.38
2022-12-22T17:48:56.744Z,97452.72
2022-12-22T17:51:28.800Z,97450.34
2022-12-22T17:53:58.853Z,97461.53
2022-12-22T17:56:28.851Z,97459.72
2022-12-22T17:58:57.019Z,97450.66
2022-12-22T18:01:27.938Z,97453.34
2022-12-22T18:03:57.123Z,97443.50
2022-12-22T18:06:28.934Z,97436.53
2022-12-22T18:08:58.312Z,97446.44
2022-12-22T18:11:27.212Z,97439.50
2022-12-22T18:13:57.423Z,97435.72
2022-12-22T18:16:25.768Z,97441.88
2022-12-22T18:18:53.883Z,97434.28
2022-12-22T18:21:24.199Z,97423.00
2022-12-22T18:23:53.817Z,97428.06
2022-12-22T18:26:24.543Z,97431.09
2022-12-22T18:28:53.583Z,97434.53
2022-12-22T18:31:23.072Z,97420.03
2022-12-22T18:33:51.523Z,97432.16
2022-12-22T18:36:24.994Z,97438.75
2022-12-22T18:38:54.997Z,97417.91
2022-12-22T18:41:25.385Z,97429.00
2022-12-22T18:43:53.992Z,97427.81
2022-12-22T18:46:22.514Z,97425.56
2022-12-22T18:48:50.773Z,97425.63
2022-12-22T18:51:21.824Z,97422.09
2022-12-22T18:53:51.119Z,97423.88
2022-12-22T18:56:21.139Z,97419.47
2022-12-22T18:58:49.484Z,97419.38
2022-12-22T19:01:21.042Z,97404.25
2022-12-22T19:03:49.662Z,97414.16
2022-12-22T19:06:20.773Z,97405.13
2022-12-22T19:08:49.600Z,97413.97
2022-12-22T19:11:23.008Z,97405.63
2022-12-22T19:13:52.604Z,97404.38
2022-12-22T19:16:24.417Z,97408.59
2022-12-22T19:18:52.555Z,97412.19
2022-12-22T19:21:20.921Z,97410.72
2022-12-22T19:23:49.604Z,97414.78
2022-12-22T19:26:23.038Z,97415.44
2022-12-22T19:28:53.921Z,97414.97
2022-12-22T19:31:25.739Z,97414.16
2022-12-22T19:33:54.509Z,97419.47
2022-12-22T19:36:26.594Z,97411.47
2022-12-22T19:39:02.801Z,97416.16
2022-12-22T19:41:39.895Z,97421.00
2022-12-22T19:44:18.085Z,97415.50
2022-12-22T19:46:46.706Z,97418.59
2022-12-22T19:49:17.700Z,97416.31
2022-12-22T19:51:45.912Z,97417.47
2022-12-22T19:54:14.334Z,97414.81
2022-12-22T19:56:47.501Z,97418.75
2022-12-22T19:59:27.334Z,97420.97
2022-12-22T20:01:58.535Z,97417.28
2022-12-22T20:04:26.949Z,97419.59
2022-12-22T20:06:55.181Z,97415.78
2022-12-22T20:09:23.260Z,97418.59
2022-12-22T20:11:52.789Z,97407.69
2022-12-22T20:14:21.086Z,97411.53
2022-12-22T20:16:49.306Z,97413.00
2022-12-22T20:19:17.579Z,97413.53
2022-12-22T20:21:45.932Z,97414.47
2022-12-22T20:24:22.205Z,97416.25
2022-12-22T20:26:54.885Z,97420.22
2022-12-22T20:29:25.185Z,97426.34
2022-12-22T20:31:53.514Z,97415.66
2022-12-22T20:34:21.594Z,97417.06
2022-12-22T20:36:50.016Z,97416.72
2022-12-22T20:39:20.585Z,97419.25
2022-12-22T20:41:53.412Z,97412.38
2022-12-22T20:44:24.121Z,97415.63
2022-12-22T20:46:52.414Z,97418.00
2022-12-22T20:49:20.476Z,97416.44
2022-12-22T20:51:48.920Z,97413.88
2022-12-22T20:54:17.181Z,97414.50
2022-12-22T20:56:46.155Z,97413.78
2022-12-22T20:59:18.003Z,97410.84
2022-12-22T21:01:48.906Z,97411.75
2022-12-22T21:04:18.293Z,97407.59
2022-12-22T21:06:49.845Z,97406.75
2022-12-22T21:09:18.547Z,97409.50
2022-12-22T21:11:46.725Z,97395.59
2022-12-22T21:14:16.860Z,97391.50
2022-12-22T21:16:45.066Z,97397.66
2022-12-22T21:19:18.887Z,97401.00
2022-12-22T21:21:47.305Z,97389.59
2022-12-22T21:24:15.482Z,97403.53
2022-12-22T21:26:46.871Z,97408.50
2022-12-22T21:29:19.206Z,97407.78
2022-12-22T21:31:47.521Z,97415.78
2022-12-22T21:34:17.508Z,97401.50
2022-12-22T21:36:49.922Z,97400.59
2022-12-22T21:39:29.747Z,97404.53
2022-12-22T21:42:01.095Z,97395.00
2022-12-22T21:44:29.650Z,97386.25
2022-12-22T21:46:58.293Z,97392.88
2022-12-22T21:49:30.570Z,97395.13
2022-12-22T21:51:58.898Z,97388.44
2022-12-22T21:54:27.975Z,97386.19
2022-12-22T21:56:56.486Z,97394.84
2022-12-22T21:59:24.600Z,97395.53
2022-12-22T22:01:53.567Z,97395.03
2022-12-22T22:04:22.318Z,97391.88
2022-12-22T22:06:51.940Z,97392.28
2022-12-22T22:09:20.047Z,97387.69
2022-12-22T22:12:05.322Z,97396.38
2022-12-22T22:14:33.424Z,97398.19
2022-12-22T22:17:01.551Z,97386.88
2022-12-22T22:19:29.662Z,97388.94
2022-12-22T22:21:59.139Z,97402.00
2022-12-22T22:24:27.234Z,97397.47
2022-12-22T22:26:56.583Z,97408.44
2022-12-22T22:29:24.635Z,97400.00
2022-12-22T22:31:52.789Z,97410.34
2022-12-22T22:34:20.943Z,97404.47
2022-12-22T22:36:49.045Z,97409.56
2022-12-22T22:39:18.490Z,97409.22
2022-12-22T22:41:46.573Z,97408.13
2022-12-22T22:44:14.721Z,97398.44
2022-12-22T22:46:42.918Z,97400.44
2022-12-22T22:49:11.259Z,97396.16
2022-12-22T22:51:39.332Z,97392.53
2022-12-22T22:54:07.436Z,97400.34
2022-12-22T22:56:38.870Z,97387.72
2022-12-22T22:59:07.064Z,97383.97
2022-12-22T23:01:35.306Z,97393.94
2022-12-22T23:04:03.450Z,97385.19
2022-12-22T23:06:31.739Z,97386.03
2022-12-22T23:09:00.732Z,97387.50
2022-12-22T23:11:28.850Z,97380.31
2022-12-22T23:13:58.321Z,97390.72
2022-12-22T23:16:29.560Z,97386.19
2022-12-22T23:19:01.919Z,97388.19
2022-12-22T23:21:30.056Z,97390.19
2022-12-22T23:23:59.176Z,97400.09
2022-12-22T23:26:27.616Z,97403.09
2022-12-22T23:29:02.663Z,97401.81
2022-12-22T23:31:33.617Z,97403.41
2022-12-22T23:34:02.047Z,97404.06
2022-12-22T23:36:30.248Z,97406.19
2022-12-22T23:38:58.916Z,97406.00
2022-12-22T23:41:27.024Z,97408.56
2022-12-22T23:43:55.490Z,97410.19
2022-12-22T23:46:24.005Z,97412.00
2022-12-22T23:48:55.677Z,97406.06
2022-12-22T23:51:26.726Z,97407.00
2022-12-22T23:53:54.942Z,97407.94
2022-12-22T23:56:23.321Z,97415.91
2022-12-22T23:58:54.856Z,97410.78
